Flight Track Log - Related Links

Times and Time Zones

All times are in EDT time to prevent confusion due to time zone crossing. See the QXE2086 flight status page for this flight to view local times or setup timezone preferences in your user account.

Time Position Orientation Groundspeed Altitude Reporting Facility
EDT Latitude Longitude Course Direction KTS MPH feet Rate Location/Type
Sat 11:11:09 PM 47.1392 -121.0275 115° Southeast 327 376 19,000  Level Seattle Center
Sat 11:12:10 PM 47.0936 -120.9108 120° Southeast 331 381 19,000  Level Seattle Center
Sat 11:13:10 PM 47.0500 -120.7875 117° Southeast 339 390 19,000  Level Seattle Center
Sat 11:14:11 PM 47.0119 -120.6842 118° Southeast 341 392 19,000  Level Seattle Center
Sat 11:15:11 PM 46.9581 -120.5389 118° Southeast 341 392 19,000  Level Seattle Center
Sat 11:16:00 PM 46.8961 -120.5918 115° Southeast  Level Estimated
Sat 11:16:12 PM 46.9122 -120.4178 119° Southeast 341 392 19,000  Level Seattle Center
Sat 11:17:12 PM 46.8675 -120.2972 118° Southeast 338 389 19,000  Level Seattle Center
Sat 11:18:13 PM 46.8225 -120.1772 119° Southeast 337 388 19,000 -99 Level Seattle Center
Sat 11:19:13 PM 46.7769 -120.0567 119° Southeast 340 391 18,800 -496 Descending Seattle Center
Sat 11:20:14 PM 46.7297 -119.9353 120° Southeast 343 395 18,000 -793 Descending Seattle Center
Sat 11:21:14 PM 46.6828 -119.8092 118° Southeast 353 406 17,200 -893 Descending Seattle Center
Sat 11:22:15 PM 46.6342 -119.6844 120° Southeast 354 407 16,200 -1,041 Descending Seattle Center
Sat 11:23:15 PM 46.5878 -119.5628 119° Southeast 346 398 15,100 -1,041 Descending Seattle Center
Sat 11:24:16 PM 46.5411 -119.4428 119° Southeast 344 396 14,100 -992 Descending Seattle Center
Sat 11:25:16 PM 46.4942 -119.3233 120° Southeast 342 394 13,100 -1,041 Descending Seattle Center
Sat 11:26:17 PM 46.4486 -119.2075 120° Southeast 334 384 12,000 -1,041 Descending Seattle Center
Sat 11:27:17 PM 46.4056 -119.0964 119° Southeast 320 368 11,000 -1,190 Descending Seattle Center
Sat 11:28:18 PM 46.3633 -118.9911 120° Southeast 304 350 9,600 -1,488 Descending Seattle Center
Sat 11:29:18 PM 46.3261 -118.8936 119° Southeast 279 321 8,000 -1,537 Descending Seattle Center
Sat 11:30:19 PM 46.2925 -118.8094 120° Southeast 269 310 6,500 -1,388 Descending Seattle Center
Sat 11:31:19 PM 46.2483 -118.6983 120° Southeast 267 307 5,200 -1,041 Descending Seattle Center
Sat 11:32:20 PM 46.2172 -118.6217 120° Southeast 259 298 4,400 -744 Descending Seattle Center
Sat 11:33:20 PM 46.2089 -118.5267 97° East 246 283 3,700 -397 Descending Seattle Center
Sat 11:34:21 PM 46.2017 -118.4175 95° East 248 285 3,600 -248 Descending Seattle Center
Sat 11:35:21 PM 46.1997 -118.3203 92° East 247 284 3,200 -496 Descending Seattle Center
Sat 11:36:22 PM 46.1717 -118.2444 118° Southeast 236 272 2,600 -496 Descending Seattle Center
Sat 11:37:22 PM 46.1339 -118.2336 169° South 188 216 2,200 -400 Descending Seattle Center

Login

Don't have an account? Register now (free) for customized features, flight alerts, and more!